createdAt,value
2017-10-22T00:00:20.755Z,9.10
2017-10-22T00:02:48.195Z,9.00
2017-10-22T00:05:15.653Z,8.90
2017-10-22T00:07:43.635Z,8.90
2017-10-22T00:10:11.067Z,8.90
2017-10-22T00:12:38.506Z,8.90
2017-10-22T00:15:06.700Z,8.80
2017-10-22T00:17:35.870Z,8.80
2017-10-22T00:20:06.524Z,8.80
2017-10-22T00:22:33.969Z,8.80
2017-10-22T00:25:01.405Z,8.80
2017-10-22T00:27:28.856Z,8.80
2017-10-22T00:29:56.331Z,8.70
2017-10-22T00:32:25.082Z,8.80
2017-10-22T00:34:52.507Z,8.80
2017-10-22T00:37:20.367Z,8.80
2017-10-22T00:39:47.797Z,8.90
2017-10-22T00:42:16.004Z,9.00
2017-10-22T00:44:43.421Z,9.00
2017-10-22T00:47:12.023Z,9.00
2017-10-22T00:49:40.235Z,9.00
2017-10-22T00:52:07.679Z,9.10
2017-10-22T00:54:36.846Z,9.10
2017-10-22T00:57:05.054Z,9.20
2017-10-22T00:59:32.997Z,9.20
2017-10-22T01:02:01.199Z,9.20
2017-10-22T01:04:28.623Z,9.20
2017-10-22T01:06:57.413Z,9.40
2017-10-22T01:09:26.642Z,9.40
2017-10-22T01:11:54.074Z,9.40
2017-10-22T01:14:21.514Z,9.50
2017-10-22T01:16:48.952Z,9.50
2017-10-22T01:19:16.389Z,9.50
2017-10-22T01:21:43.982Z,9.60
2017-10-22T01:24:11.943Z,9.60
2017-10-22T01:26:39.386Z,9.70
2017-10-22T01:29:07.350Z,9.60
2017-10-22T01:31:34.787Z,9.70
2017-10-22T01:34:02.211Z,9.70
2017-10-22T01:36:30.187Z,9.70
2017-10-22T01:38:57.615Z,9.70
2017-10-22T01:41:25.070Z,9.60
2017-10-22T01:43:52.924Z,9.60
2017-10-22T01:46:20.365Z,9.60
2017-10-22T01:48:47.806Z,9.70
2017-10-22T01:51:15.240Z,9.60
2017-10-22T01:53:42.662Z,9.60
2017-10-22T01:56:10.106Z,9.60
2017-10-22T01:58:37.538Z,9.60
2017-10-22T02:01:04.985Z,9.60
2017-10-22T02:03:32.950Z,9.60
2017-10-22T02:06:00.383Z,9.50
2017-10-22T02:08:28.379Z,9.50
2017-10-22T02:10:55.812Z,9.50
2017-10-22T02:13:24.010Z,9.50
2017-10-22T02:15:51.442Z,9.50
2017-10-22T02:18:20.383Z,9.50
2017-10-22T02:20:48.386Z,9.50
2017-10-22T02:23:16.597Z,9.40
2017-10-22T02:25:44.027Z,9.40
2017-10-22T02:28:12.769Z,9.30
2017-10-22T02:30:40.200Z,9.30
2017-10-22T02:33:07.642Z,9.30
2017-10-22T02:35:35.342Z,9.20
2017-10-22T02:38:02.774Z,9.20
2017-10-22T02:40:30.198Z,9.10
2017-10-22T02:42:58.397Z,9.10
2017-10-22T02:45:25.827Z,9.00
2017-10-22T02:47:54.029Z,9.20
2017-10-22T02:50:22.003Z,9.20
2017-10-22T02:52:49.439Z,9.40
2017-10-22T02:55:17.669Z,9.70
2017-10-22T02:57:45.706Z,9.60
2017-10-22T03:00:13.126Z,9.70
2017-10-22T03:02:41.342Z,9.80
2017-10-22T03:05:08.762Z,9.80
2017-10-22T03:07:37.826Z,9.70
2017-10-22T03:10:05.239Z,9.70
2017-10-22T03:12:32.678Z,9.50
2017-10-22T03:15:01.274Z,9.40
2017-10-22T03:17:29.315Z,9.30
2017-10-22T03:19:57.269Z,9.20
2017-10-22T03:22:24.701Z,9.10
2017-10-22T03:24:52.130Z,9.00
2017-10-22T03:27:19.570Z,8.90
2017-10-22T03:29:48.304Z,8.80
2017-10-22T03:32:15.738Z,8.80
2017-10-22T03:34:43.173Z,8.80
2017-10-22T03:37:12.104Z,8.90
2017-10-22T03:39:40.067Z,8.90
2017-10-22T03:42:07.518Z,9.00
2017-10-22T03:44:34.942Z,9.00
2017-10-22T03:47:03.156Z,9.00
2017-10-22T03:49:31.291Z,9.00
2017-10-22T03:52:06.579Z,9.00
2017-10-22T03:54:34.006Z,9.00
2017-10-22T03:57:01.444Z,9.00
2017-10-22T03:59:29.653Z,8.80
2017-10-22T04:01:57.615Z,8.80
2017-10-22T04:04:25.053Z,8.70
2017-10-22T04:06:53.667Z,8.50
2017-10-22T04:09:21.094Z,8.50
2017-10-22T04:11:49.297Z,8.40
2017-10-22T04:14:16.717Z,8.50
2017-10-22T04:16:45.356Z,8.30
2017-10-22T04:19:12.779Z,8.30
2017-10-22T04:21:40.220Z,8.20
2017-10-22T04:24:08.436Z,8.20
2017-10-22T04:26:35.881Z,8.20
2017-10-22T04:29:03.750Z,8.10
2017-10-22T04:31:31.191Z,8.10
2017-10-22T04:33:58.627Z,8.20
2017-10-22T04:36:26.823Z,8.20
2017-10-22T04:38:54.595Z,8.20
2017-10-22T04:41:22.792Z,8.20
2017-10-22T04:43:50.236Z,8.20
2017-10-22T04:46:17.796Z,8.10
2017-10-22T04:48:45.666Z,8.10
2017-10-22T04:51:13.549Z,8.10
2017-10-22T04:53:40.996Z,8.10
2017-10-22T04:56:08.417Z,8.10
2017-10-22T04:58:37.304Z,8.10
2017-10-22T05:01:04.739Z,8.00
2017-10-22T05:03:32.632Z,8.00
2017-10-22T05:06:00.060Z,8.00
2017-10-22T05:08:27.939Z,8.00
2017-10-22T05:10:56.130Z,8.00
2017-10-22T05:13:23.570Z,8.00
2017-10-22T05:15:51.764Z,8.00
2017-10-22T05:18:20.546Z,8.00
2017-10-22T05:20:47.975Z,8.10
2017-10-22T05:23:15.818Z,8.10
2017-10-22T05:25:43.246Z,8.10
2017-10-22T05:28:10.948Z,8.20
2017-10-22T05:30:38.883Z,8.20
2017-10-22T05:33:06.307Z,8.30
2017-10-22T05:35:35.233Z,8.60
2017-10-22T05:38:02.674Z,8.60
2017-10-22T05:40:30.821Z,8.70
2017-10-22T05:42:59.034Z,8.80
2017-10-22T05:45:27.809Z,8.80
2017-10-22T05:47:55.242Z,8.80
2017-10-22T05:50:23.455Z,8.90
2017-10-22T05:52:50.908Z,8.90
2017-10-22T05:55:18.337Z,8.90
2017-10-22T05:57:46.545Z,9.00
2017-10-22T06:00:16.577Z,8.90
2017-10-22T06:02:44.850Z,8.90
2017-10-22T06:05:12.300Z,8.90
2017-10-22T06:07:42.550Z,8.90
2017-10-22T06:10:10.096Z,9.00
2017-10-22T06:12:39.005Z,9.00
2017-10-22T06:15:06.435Z,9.00
2017-10-22T06:17:48.739Z,9.10
2017-10-22T06:20:16.181Z,9.10
2017-10-22T06:22:43.982Z,9.20
2017-10-22T06:25:11.983Z,9.20
2017-10-22T06:27:40.185Z,9.20
2017-10-22T06:30:07.631Z,9.20
2017-10-22T06:32:35.831Z,9.30
2017-10-22T06:35:03.830Z,9.30
2017-10-22T06:37:31.274Z,9.30
2017-10-22T06:39:59.218Z,9.30
2017-10-22T06:42:26.651Z,9.30
2017-10-22T06:44:54.885Z,9.30
2017-10-22T06:47:22.412Z,9.30
2017-10-22T06:49:49.832Z,9.40
2017-10-22T06:52:18.042Z,9.40
2017-10-22T06:54:45.468Z,9.30
2017-10-22T06:57:13.669Z,9.40
2017-10-22T06:59:41.567Z,9.30
2017-10-22T07:02:08.999Z,9.40
2017-10-22T07:04:36.492Z,9.40
2017-10-22T07:07:04.282Z,9.40
2017-10-22T07:09:31.763Z,9.40
2017-10-22T07:12:00.111Z,9.50
2017-10-22T07:14:27.544Z,9.50
2017-10-22T07:16:54.981Z,9.50
2017-10-22T07:19:22.412Z,9.60
2017-10-22T07:21:49.835Z,9.70
2017-10-22T07:24:17.977Z,9.80
2017-10-22T07:26:45.654Z,9.90
2017-10-22T07:29:13.095Z,9.90
2017-10-22T07:31:42.924Z,9.90
2017-10-22T07:34:10.351Z,10.00
2017-10-22T07:36:38.011Z,10.00
2017-10-22T07:39:05.991Z,10.10
2017-10-22T07:41:34.263Z,10.10
2017-10-22T07:44:01.708Z,10.10
2017-10-22T07:46:30.052Z,10.10
2017-10-22T07:48:58.258Z,10.30
2017-10-22T07:51:25.689Z,10.20
2017-10-22T07:53:53.162Z,10.30
2017-10-22T07:56:21.069Z,10.40
2017-10-22T07:58:48.504Z,10.40
2017-10-22T08:01:15.943Z,10.40
2017-10-22T08:03:43.396Z,10.50
2017-10-22T08:06:10.835Z,10.50
2017-10-22T08:08:39.031Z,10.60
2017-10-22T08:11:06.471Z,10.60
2017-10-22T08:13:34.706Z,10.70
2017-10-22T08:16:02.151Z,10.70
2017-10-22T08:18:29.590Z,10.80
2017-10-22T08:20:57.031Z,10.80
2017-10-22T08:23:24.479Z,10.70
2017-10-22T08:25:51.921Z,10.70
2017-10-22T08:28:20.139Z,10.80
2017-10-22T08:30:47.571Z,10.80
2017-10-22T08:33:15.010Z,10.90
2017-10-22T08:35:43.262Z,10.90
2017-10-22T08:38:10.707Z,10.80
2017-10-22T08:40:38.186Z,10.90
2017-10-22T08:43:05.980Z,10.80
2017-10-22T08:45:34.163Z,10.80
2017-10-22T08:48:01.607Z,10.80
2017-10-22T08:50:29.815Z,10.80
2017-10-22T08:52:57.266Z,10.80
2017-10-22T08:55:24.739Z,10.80
2017-10-22T08:57:52.199Z,10.80
2017-10-22T09:00:19.632Z,10.80
2017-10-22T09:02:47.088Z,10.80
2017-10-22T09:05:14.526Z,10.90
2017-10-22T09:07:42.930Z,11.00
2017-10-22T09:10:10.360Z,11.00
2017-10-22T09:12:38.563Z,11.40
2017-10-22T09:15:07.455Z,11.70
2017-10-22T09:17:34.899Z,11.70
2017-10-22T09:20:02.408Z,11.90
2017-10-22T09:22:29.854Z,12.10
2017-10-22T09:24:57.294Z,12.30
2017-10-22T09:27:24.732Z,12.50
2017-10-22T09:29:52.159Z,12.50
2017-10-22T09:32:20.998Z,12.70
2017-10-22T09:34:48.433Z,12.60
2017-10-22T09:37:15.862Z,12.30
2017-10-22T09:39:44.075Z,12.00
2017-10-22T09:42:11.522Z,12.00
2017-10-22T09:44:39.811Z,11.80
2017-10-22T09:47:07.245Z,11.60
2017-10-22T09:49:35.086Z,11.60
2017-10-22T09:52:03.491Z,11.50
2017-10-22T09:54:30.991Z,11.40
2017-10-22T09:56:58.554Z,11.40
2017-10-22T09:59:25.988Z,11.60
2017-10-22T10:01:53.439Z,11.70
2017-10-22T10:04:20.881Z,11.70
2017-10-22T10:06:48.335Z,11.80
2017-10-22T10:09:16.547Z,11.80
2017-10-22T10:11:43.970Z,11.70
2017-10-22T10:14:17.897Z,11.60
2017-10-22T10:16:45.327Z,11.50
2017-10-22T10:19:13.534Z,11.60
2017-10-22T10:21:41.195Z,11.50
2017-10-22T10:24:09.054Z,11.60
2017-10-22T10:26:36.514Z,11.40
2017-10-22T10:29:04.351Z,11.50
2017-10-22T10:31:42.766Z,11.30
2017-10-22T10:34:10.220Z,11.20
2017-10-22T10:36:38.513Z,11.40
2017-10-22T10:41:40.690Z,11.60
2017-10-22T10:44:08.152Z,11.60
2017-10-22T10:46:36.312Z,11.70
2017-10-22T10:49:04.523Z,12.00
2017-10-22T10:51:32.732Z,12.00
2017-10-22T10:54:00.204Z,12.00
2017-10-22T10:56:28.483Z,12.00
2017-10-22T10:58:55.937Z,11.90
2017-10-22T11:01:23.413Z,11.80
2017-10-22T11:03:50.859Z,11.60
2017-10-22T11:06:19.498Z,11.60
2017-10-22T11:08:46.959Z,11.50
2017-10-22T11:11:16.842Z,11.70
2017-10-22T11:13:44.278Z,11.90
2017-10-22T11:16:12.480Z,11.90
2017-10-22T11:18:39.951Z,11.90
2017-10-22T11:21:07.389Z,11.90
2017-10-22T11:23:34.826Z,12.00
2017-10-22T11:26:02.287Z,12.20
2017-10-22T11:28:29.727Z,12.20
2017-10-22T11:30:58.131Z,12.00
2017-10-22T11:33:25.584Z,12.00
2017-10-22T11:35:53.240Z,12.00
2017-10-22T11:38:21.222Z,12.00
2017-10-22T11:40:48.651Z,11.80
2017-10-22T11:43:17.252Z,11.80
2017-10-22T11:45:45.443Z,11.70
2017-10-22T11:48:13.284Z,11.70
2017-10-22T11:50:40.718Z,11.70
2017-10-22T11:53:08.146Z,11.70
2017-10-22T11:55:35.621Z,11.80
2017-10-22T11:58:03.054Z,11.80
2017-10-22T12:00:31.202Z,11.70
2017-10-22T12:02:59.187Z,11.50
2017-10-22T12:05:26.627Z,11.30
2017-10-22T12:07:54.471Z,11.20
2017-10-22T12:10:22.699Z,10.80
2017-10-22T12:12:50.133Z,10.80
2017-10-22T12:15:18.111Z,10.70
2017-10-22T12:17:45.540Z,10.60
2017-10-22T12:20:12.978Z,10.50
2017-10-22T12:22:41.181Z,10.70
2017-10-22T12:25:08.623Z,10.60
2017-10-22T12:27:36.826Z,10.80
2017-10-22T12:32:39.002Z,10.70
2017-10-22T12:35:06.433Z,10.70
2017-10-22T12:37:34.637Z,10.70
2017-10-22T12:40:02.084Z,10.70
2017-10-22T12:42:29.787Z,10.80
2017-10-22T12:44:59.670Z,10.90
2017-10-22T12:47:27.101Z,11.00
2017-10-22T12:49:55.328Z,11.00
2017-10-22T12:52:23.181Z,11.00
2017-10-22T12:54:50.636Z,10.90
2017-10-22T12:57:18.500Z,10.80
2017-10-22T12:59:45.938Z,10.60
2017-10-22T13:02:13.499Z,10.30
2017-10-22T13:04:41.512Z,10.10
2017-10-22T13:07:09.764Z,9.90
2017-10-22T13:09:37.204Z,9.90
2017-10-22T13:12:04.634Z,9.80
2017-10-22T13:14:33.393Z,9.70
2017-10-22T13:17:01.560Z,9.70
2017-10-22T13:19:28.997Z,9.70
2017-10-22T13:21:56.414Z,9.80
2017-10-22T13:24:25.161Z,9.90
2017-10-22T13:26:53.012Z,9.90
2017-10-22T13:29:20.451Z,10.00
2017-10-22T13:31:49.734Z,10.00
2017-10-22T13:34:17.937Z,10.00
2017-10-22T13:36:45.395Z,10.00
2017-10-22T13:39:12.833Z,10.00
2017-10-22T13:41:40.291Z,10.10
2017-10-22T13:44:07.730Z,10.00
2017-10-22T13:46:35.935Z,10.00
2017-10-22T13:49:03.388Z,10.00
2017-10-22T13:51:30.822Z,9.90
2017-10-22T13:53:59.334Z,9.80
2017-10-22T13:56:26.775Z,9.80
2017-10-22T13:58:54.788Z,9.80
2017-10-22T14:01:22.223Z,9.80
2017-10-22T14:03:49.672Z,9.80
2017-10-22T14:06:17.662Z,9.90
2017-10-22T14:08:45.099Z,9.90
2017-10-22T14:11:12.535Z,9.80
2017-10-22T14:13:41.839Z,9.90
2017-10-22T14:16:09.289Z,9.90
2017-10-22T14:18:36.722Z,9.90
2017-10-22T14:21:04.892Z,9.90
2017-10-22T14:23:32.320Z,9.90
2017-10-22T14:25:59.757Z,9.80
2017-10-22T14:28:27.191Z,9.90
2017-10-22T14:30:55.407Z,10.00
2017-10-22T14:33:23.302Z,9.90
2017-10-22T14:35:50.795Z,10.00
2017-10-22T14:38:19.566Z,10.20
2017-10-22T14:40:47.998Z,10.30
2017-10-22T14:43:15.430Z,10.30
2017-10-22T14:45:42.872Z,10.40
2017-10-22T14:48:11.077Z,10.50
2017-10-22T14:50:38.531Z,10.50
2017-10-22T14:53:06.695Z,10.60
2017-10-22T14:55:34.140Z,10.60
2017-10-22T14:58:01.588Z,10.70
2017-10-22T15:00:30.356Z,10.60
2017-10-22T15:02:57.792Z,10.60
2017-10-22T15:05:25.244Z,10.60
2017-10-22T15:07:52.682Z,10.50
2017-10-22T15:10:20.586Z,10.40
2017-10-22T15:12:48.422Z,10.40
2017-10-22T15:15:16.282Z,10.40
2017-10-22T15:17:44.155Z,10.30
2017-10-22T15:20:11.601Z,10.30
2017-10-22T15:22:39.042Z,10.20
2017-10-22T15:25:06.479Z,10.20
2017-10-22T15:27:35.102Z,10.00
2017-10-22T15:30:02.661Z,9.90
2017-10-22T15:32:30.099Z,9.90
2017-10-22T15:34:57.966Z,9.80
2017-10-22T15:37:26.165Z,9.60
2017-10-22T15:39:53.610Z,9.60
2017-10-22T15:42:21.031Z,9.40
2017-10-22T15:44:49.365Z,9.30
2017-10-22T15:47:17.209Z,9.20
2017-10-22T15:49:45.189Z,9.20
2017-10-22T15:52:12.617Z,9.10
2017-10-22T15:54:40.325Z,9.10
2017-10-22T15:57:07.755Z,9.00
2017-10-22T15:59:35.751Z,9.00
2017-10-22T16:02:03.191Z,8.90
2017-10-22T16:04:30.640Z,8.90
2017-10-22T16:06:58.062Z,8.90
2017-10-22T16:09:26.292Z,8.80
2017-10-22T16:11:57.618Z,8.80
2017-10-22T16:14:25.054Z,8.80
2017-10-22T16:16:52.550Z,8.70
2017-10-22T16:19:19.989Z,8.60
2017-10-22T16:21:54.064Z,8.60
2017-10-22T16:24:22.295Z,8.50
2017-10-22T16:26:50.626Z,8.50
2017-10-22T16:29:20.631Z,8.50
2017-10-22T16:31:48.067Z,8.40
2017-10-22T16:34:16.584Z,8.50
2017-10-22T16:36:45.929Z,8.50
2017-10-22T16:39:13.363Z,8.50
2017-10-22T16:41:40.805Z,8.50
2017-10-22T16:44:08.247Z,8.60
2017-10-22T16:46:36.463Z,8.50
2017-10-22T16:49:03.900Z,8.50
2017-10-22T16:51:31.339Z,8.50
2017-10-22T16:53:59.546Z,8.40
2017-10-22T16:56:26.988Z,8.40
2017-10-22T16:58:54.418Z,8.40
2017-10-22T17:01:21.850Z,8.40
2017-10-22T17:03:49.283Z,8.30
2017-10-22T17:06:17.061Z,8.30
2017-10-22T17:08:44.507Z,8.20
2017-10-22T17:11:14.265Z,8.10
2017-10-22T17:13:41.690Z,8.10
2017-10-22T17:16:09.134Z,8.00
2017-10-22T17:18:36.572Z,7.90
2017-10-22T17:21:04.013Z,7.80
2017-10-22T17:23:32.211Z,7.70
2017-10-22T17:25:59.663Z,7.70
2017-10-22T17:28:27.131Z,7.70
2017-10-22T17:30:54.572Z,7.60
2017-10-22T17:33:22.036Z,7.60
2017-10-22T17:35:49.488Z,7.60
2017-10-22T17:38:17.234Z,7.50
2017-10-22T17:40:45.444Z,7.40
2017-10-22T17:43:12.871Z,7.40
2017-10-22T17:45:40.327Z,7.40
2017-10-22T17:48:08.111Z,7.40
2017-10-22T17:50:35.542Z,7.30
2017-10-22T17:53:03.547Z,7.30
2017-10-22T17:55:31.765Z,7.40
2017-10-22T17:57:59.971Z,7.40
2017-10-22T18:00:27.544Z,7.30
2017-10-22T18:02:55.086Z,7.30
2017-10-22T18:05:22.551Z,7.20
2017-10-22T18:07:49.992Z,7.10
2017-10-22T18:10:18.223Z,6.90
2017-10-22T18:12:45.658Z,6.90
2017-10-22T18:15:13.376Z,6.90
2017-10-22T18:17:40.810Z,6.90
2017-10-22T18:20:08.726Z,6.90
2017-10-22T18:22:36.173Z,6.90
2017-10-22T18:25:04.795Z,6.90
2017-10-22T18:27:32.246Z,6.90
2017-10-22T18:29:59.666Z,6.90
2017-10-22T18:32:27.882Z,7.00
2017-10-22T18:34:55.321Z,6.90
2017-10-22T18:37:23.299Z,7.00
2017-10-22T18:39:50.935Z,7.00
2017-10-22T18:42:18.395Z,7.10
2017-10-22T18:44:45.823Z,7.10
2017-10-22T18:47:13.262Z,7.20
2017-10-22T18:49:41.005Z,7.20
2017-10-22T18:52:08.454Z,7.20
2017-10-22T18:54:37.195Z,7.30
2017-10-22T18:57:05.406Z,7.40
2017-10-22T18:59:32.845Z,7.40
2017-10-22T19:02:00.278Z,7.50
2017-10-22T19:04:28.474Z,7.70
2017-10-22T19:06:55.919Z,7.70
2017-10-22T19:09:24.537Z,7.90
2017-10-22T19:11:51.980Z,7.90
2017-10-22T19:14:19.407Z,8.00
2017-10-22T19:16:47.611Z,7.90
2017-10-22T19:19:15.046Z,7.90
2017-10-22T19:21:43.269Z,7.70
2017-10-22T19:24:10.707Z,7.70
2017-10-22T19:26:38.147Z,7.60
2017-10-22T19:29:06.922Z,7.40
2017-10-22T19:31:35.145Z,7.30
2017-10-22T19:34:04.318Z,7.30
2017-10-22T19:36:31.754Z,7.30
2017-10-22T19:38:59.947Z,7.30
2017-10-22T19:41:27.433Z,7.30
2017-10-22T19:43:55.148Z,7.40
2017-10-22T19:46:22.782Z,7.50
2017-10-22T19:48:50.210Z,7.50
2017-10-22T19:51:18.170Z,7.50
2017-10-22T19:53:45.602Z,7.50
2017-10-22T19:56:13.051Z,7.50
2017-10-22T19:58:41.256Z,7.40
2017-10-22T20:01:09.246Z,7.40
2017-10-22T20:03:36.682Z,7.20
2017-10-22T20:06:04.162Z,7.20
2017-10-22T20:08:31.597Z,7.10
2017-10-22T20:10:59.437Z,7.10
2017-10-22T20:13:27.643Z,6.90
2017-10-22T20:15:55.079Z,6.80
2017-10-22T20:18:23.415Z,6.80
2017-10-22T20:20:50.846Z,6.60
2017-10-22T20:23:18.802Z,6.50
2017-10-22T20:25:46.247Z,6.30
2017-10-22T20:28:13.965Z,6.20
2017-10-22T20:30:41.398Z,6.10
2017-10-22T20:33:08.844Z,6.00
2017-10-22T20:35:36.306Z,5.90
2017-10-22T20:38:04.571Z,5.80
2017-10-22T20:40:32.015Z,5.90
2017-10-22T20:42:59.460Z,6.00
2017-10-22T20:45:26.896Z,6.00
2017-10-22T20:47:54.328Z,6.10
2017-10-22T20:50:21.758Z,6.10
2017-10-22T20:52:49.200Z,6.20
2017-10-22T20:55:16.906Z,6.30
2017-10-22T20:57:44.334Z,6.30
2017-10-22T21:00:11.771Z,6.30
2017-10-22T21:02:39.210Z,6.40
2017-10-22T21:05:08.026Z,6.50
2017-10-22T21:07:35.479Z,6.50
2017-10-22T21:10:02.920Z,6.50
2017-10-22T21:12:30.353Z,6.60
2017-10-22T21:14:58.679Z,6.60
2017-10-22T21:17:26.130Z,6.60
2017-10-22T21:19:53.568Z,6.60
2017-10-22T21:22:21.769Z,6.70
2017-10-22T21:24:49.215Z,6.70
2017-10-22T21:27:16.658Z,6.70
2017-10-22T21:29:44.111Z,6.70
2017-10-22T21:32:12.322Z,6.70
2017-10-22T21:34:40.134Z,6.70
2017-10-22T21:37:07.938Z,6.80
2017-10-22T21:39:36.098Z,6.90
2017-10-22T21:42:03.547Z,6.80
2017-10-22T21:44:32.383Z,6.90
2017-10-22T21:46:59.823Z,6.90
2017-10-22T21:49:27.254Z,6.90
2017-10-22T21:51:55.003Z,7.00
2017-10-22T21:54:23.220Z,7.10
2017-10-22T21:56:51.255Z,7.00
2017-10-22T21:59:20.008Z,7.10
2017-10-22T22:01:47.442Z,7.10
2017-10-22T22:04:14.871Z,7.20
2017-10-22T22:06:42.323Z,7.20
2017-10-22T22:09:09.765Z,7.20
2017-10-22T22:11:37.973Z,7.20
2017-10-22T22:14:05.664Z,7.20
2017-10-22T22:16:33.099Z,7.20
2017-10-22T22:19:01.070Z,7.10
2017-10-22T22:21:28.506Z,7.10
2017-10-22T22:23:55.947Z,7.10
2017-10-22T22:26:24.576Z,7.00
2017-10-22T22:28:52.543Z,6.90
2017-10-22T22:31:19.987Z,7.00
2017-10-22T22:33:47.415Z,7.00
2017-10-22T22:36:16.507Z,7.10
2017-10-22T22:38:44.706Z,7.20
2017-10-22T22:41:13.557Z,7.10
2017-10-22T22:43:41.271Z,7.20
2017-10-22T22:46:08.724Z,7.20
2017-10-22T22:48:36.152Z,7.30
2017-10-22T22:51:04.780Z,7.40
2017-10-22T22:53:32.226Z,7.30
2017-10-22T22:55:59.650Z,7.40
2017-10-22T22:58:27.855Z,7.50
2017-10-22T23:00:57.456Z,7.40
2017-10-22T23:03:25.308Z,7.50
2017-10-22T23:05:53.278Z,7.50
2017-10-22T23:08:20.710Z,7.50
2017-10-22T23:10:51.218Z,7.40
2017-10-22T23:13:18.660Z,7.40
2017-10-22T23:15:46.615Z,7.40
2017-10-22T23:18:14.576Z,7.40
2017-10-22T23:20:41.998Z,7.40
2017-10-22T23:23:10.226Z,7.50
2017-10-22T23:25:38.635Z,7.40
2017-10-22T23:28:06.491Z,7.40
2017-10-22T23:30:34.453Z,7.40
2017-10-22T23:33:02.442Z,7.40
2017-10-22T23:35:29.880Z,7.40
2017-10-22T23:37:57.322Z,7.40
2017-10-22T23:40:24.762Z,7.40
2017-10-22T23:42:52.198Z,7.40
2017-10-22T23:45:20.437Z,7.40
2017-10-22T23:47:48.418Z,7.40
2017-10-22T23:50:16.615Z,7.40
2017-10-22T23:52:44.057Z,7.30
2017-10-22T23:55:12.683Z,7.40
2017-10-22T23:57:40.663Z,7.30
